Time;durP1;ratioP1;P1;durP2;ratioP2;P2;SDS_P1;SDS_P2;PMS_P1;PMS_P2;Temp;Humidity;BMP_temperature;BMP_pressure;BME280_temperature;BME280_humidity;BME280_pressure;Samples;Min_cycle;Max_cycle;Signal;HPM_P1;HPM_P2
2023/10/20 00:00:06;;;;;;;10.43;8.80;;;12.90;99.90;;;;;;2064807;28;20301;-70
2023/10/20 00:01:06;;;;;;;12.23;8.63;;;12.90;99.90;;;;;;2068617;28;20455;-71
2023/10/20 00:02:14;;;;;;;13.67;9.40;;;13.00;99.90;;;;;;2064969;28;20897;-71
2023/10/20 00:03:14;;;;;;;15.55;9.50;;;12.90;99.90;;;;;;2060654;28;20205;-71
2023/10/20 00:04:16;;;;;;;10.77;8.57;;;12.90;99.90;;;;;;2064350;28;20198;-71
2023/10/20 00:05:17;;;;;;;12.77;9.57;;;12.90;99.90;;;;;;2064524;28;20189;-70
2023/10/20 00:06:17;;;;;;;16.35;10.50;;;12.90;99.90;;;;;;2064935;28;20563;-71
2023/10/20 00:07:18;;;;;;;11.20;8.57;;;12.90;99.90;;;;;;2065520;28;20201;-70
2023/10/20 00:08:19;;;;;;;13.93;9.73;;;13.00;99.90;;;;;;2064838;28;20654;-71
2023/10/20 00:09:19;;;;;;;16.43;11.27;;;13.10;99.90;;;;;;2065253;28;20197;-71
2023/10/20 00:10:20;;;;;;;14.27;9.97;;;13.10;99.90;;;;;;2066417;28;20182;-71
2023/10/20 00:11:21;;;;;;;17.57;10.70;;;13.10;99.90;;;;;;2065539;28;20273;-70
2023/10/20 00:12:22;;;;;;;15.87;9.67;;;13.10;99.90;;;;;;2065203;28;20249;-70
2023/10/20 00:13:22;;;;;;;17.00;10.03;;;13.00;99.90;;;;;;2053450;28;20199;-70
2023/10/20 00:14:23;;;;;;;11.80;8.10;;;13.00;99.90;;;;;;2056860;28;20190;-71
2023/10/20 00:15:24;;;;;;;12.83;9.87;;;13.10;99.90;;;;;;2064707;28;20186;-70
2023/10/20 00:16:28;;;;;;;13.33;10.47;;;13.10;99.90;;;;;;2064815;28;20704;-71
2023/10/20 00:17:29;;;;;;;12.93;9.82;;;13.10;99.90;;;;;;2065330;28;20723;-70
2023/10/20 00:18:30;;;;;;;13.00;10.20;;;13.00;99.90;;;;;;2067532;28;20237;-71
2023/10/20 00:19:31;;;;;;;14.97;10.93;;;13.00;99.90;;;;;;2069739;28;20229;-70
2023/10/20 00:20:32;;;;;;;12.23;9.70;;;13.00;99.90;;;;;;2073456;28;20534;-71
2023/10/20 00:21:34;;;;;;;15.97;10.40;;;13.10;99.90;;;;;;2070190;28;20668;-71
2023/10/20 00:22:35;;;;;;;12.73;9.45;;;13.00;99.90;;;;;;2068957;28;20260;-71
2023/10/20 00:23:35;;;;;;;16.80;11.32;;;12.90;99.90;;;;;;2065760;28;20298;-71
2023/10/20 00:24:36;;;;;;;14.73;10.03;;;13.00;99.90;;;;;;2065554;28;20279;-71
2023/10/20 00:25:37;;;;;;;12.87;10.10;;;13.00;99.90;;;;;;2065435;28;20234;-71
2023/10/20 00:26:38;;;;;;;16.03;10.40;;;13.10;99.90;;;;;;2064690;28;20226;-71
2023/10/20 00:27:40;;;;;;;14.83;9.90;;;13.00;99.90;;;;;;2069299;28;20316;-71
2023/10/20 00:28:41;;;;;;;17.08;10.20;;;12.90;99.90;;;;;;2073084;28;20360;-71
2023/10/20 00:29:42;;;;;;;18.00;11.50;;;12.80;99.90;;;;;;2073042;28;20442;-71
2023/10/20 00:30:42;;;;;;;16.03;10.23;;;12.70;99.90;;;;;;2080639;28;20319;-71
2023/10/20 00:31:43;;;;;;;12.47;8.87;;;12.60;99.90;;;;;;2080636;28;20768;-71
2023/10/20 00:32:45;;;;;;;13.53;8.77;;;12.60;99.90;;;;;;2073441;28;20260;-71
2023/10/20 00:33:45;;;;;;;9.13;7.30;;;12.60;99.90;;;;;;2068579;28;20226;-71
2023/10/20 00:34:46;;;;;;;17.43;11.13;;;12.60;99.90;;;;;;2073369;28;20312;-71
2023/10/20 00:35:47;;;;;;;14.00;9.63;;;12.50;99.90;;;;;;2079555;28;20232;-71
2023/10/20 00:36:47;;;;;;;13.27;9.50;;;12.50;99.90;;;;;;2066120;28;20240;-71
2023/10/20 00:37:48;;;;;;;10.40;8.73;;;12.50;99.90;;;;;;2064722;28;20798;-71
2023/10/20 00:38:49;;;;;;;10.10;8.30;;;12.50;99.90;;;;;;2072311;28;20244;-71
2023/10/20 00:39:49;;;;;;;16.20;10.57;;;12.60;99.90;;;;;;2073314;28;20233;-71
2023/10/20 00:40:50;;;;;;;10.77;8.50;;;12.70;99.90;;;;;;2064137;28;20708;-71
2023/10/20 00:41:51;;;;;;;11.43;8.90;;;12.70;99.90;;;;;;2064673;28;20226;-71
2023/10/20 00:42:51;;;;;;;17.07;10.40;;;12.70;99.90;;;;;;2071890;28;20229;-71
2023/10/20 00:43:53;;;;;;;11.07;9.70;;;12.80;99.90;;;;;;2064902;28;20766;-70
2023/10/20 00:44:53;;;;;;;12.30;9.55;;;12.90;99.90;;;;;;2064051;28;20321;-71
2023/10/20 00:45:54;;;;;;;12.57;9.10;;;13.00;99.90;;;;;;2070127;28;20229;-71
2023/10/20 00:46:55;;;;;;;11.23;9.00;;;13.00;99.90;;;;;;2072316;28;20275;-70
2023/10/20 00:47:56;;;;;;;12.70;9.53;;;13.00;99.90;;;;;;2064915;28;20234;-71
2023/10/20 00:48:57;;;;;;;11.70;9.20;;;13.00;99.90;;;;;;2072198;28;20784;-71
2023/10/20 00:49:59;;;;;;;14.68;9.48;;;13.10;99.90;;;;;;2071342;28;20233;-71
2023/10/20 00:51:00;;;;;;;14.82;10.30;;;13.10;99.90;;;;;;2056969;28;20269;-71
2023/10/20 00:52:01;;;;;;;13.02;9.50;;;13.10;99.90;;;;;;2063679;28;20242;-71
2023/10/20 00:53:03;;;;;;;12.60;9.60;;;13.10;99.90;;;;;;2064750;28;20238;-71
2023/10/20 00:54:05;;;;;;;16.58;10.32;;;13.20;99.90;;;;;;2063218;28;20229;-71
2023/10/20 00:55:09;;;;;;;17.88;10.45;;;13.20;99.90;;;;;;2069539;28;20227;-72
2023/10/20 00:56:10;;;;;;;12.70;10.30;;;13.20;99.90;;;;;;2064973;28;20214;-71
2023/10/20 00:57:14;;;;;;;11.35;8.60;;;13.30;99.90;;;;;;2065320;28;20186;-72
2023/10/20 00:58:15;;;;;;;12.82;9.15;;;13.30;99.90;;;;;;2065232;28;20191;-73
2023/10/20 00:59:16;;;;;;;16.97;9.77;;;13.30;99.90;;;;;;2062114;28;20210;-71
2023/10/20 01:00:17;;;;;;;15.43;9.70;;;13.20;99.90;;;;;;2054546;28;20447;-71
2023/10/20 01:01:18;;;;;;;15.00;9.63;;;13.30;99.90;;;;;;2063064;28;20190;-71
2023/10/20 01:02:20;;;;;;;15.10;10.43;;;13.30;99.90;;;;;;2059904;28;20210;-71
2023/10/20 01:03:22;;;;;;;17.90;10.43;;;13.40;99.90;;;;;;2062539;28;20209;-71
2023/10/20 01:04:22;;;;;;;12.57;9.32;;;13.30;99.90;;;;;;2059914;28;20432;-71
2023/10/20 01:05:23;;;;;;;17.13;10.17;;;13.30;99.90;;;;;;2063155;28;20190;-71
2023/10/20 01:06:25;;;;;;;10.93;8.50;;;13.40;99.90;;;;;;2063002;28;20736;-71
2023/10/20 01:07:25;;;;;;;22.45;11.77;;;13.40;99.90;;;;;;2063768;28;21810;-71
2023/10/20 01:08:26;;;;;;;14.00;10.50;;;13.30;99.90;;;;;;2059376;28;20664;-72
2023/10/20 01:09:27;;;;;;;16.37;10.63;;;13.40;99.90;;;;;;2062835;28;20288;-71
2023/10/20 01:10:28;;;;;;;16.55;10.82;;;13.40;99.90;;;;;;2063949;28;20230;-71
2023/10/20 01:11:29;;;;;;;14.87;10.53;;;13.50;99.90;;;;;;2071077;28;20230;-72
2023/10/20 01:12:31;;;;;;;19.33;12.13;;;13.50;99.90;;;;;;2077989;28;20473;-72
2023/10/20 01:13:31;;;;;;;15.60;10.63;;;13.60;99.90;;;;;;2081705;28;20305;-71
2023/10/20 01:14:32;;;;;;;17.03;10.93;;;13.60;99.90;;;;;;2070762;28;20482;-71
2023/10/20 01:15:33;;;;;;;21.67;11.63;;;13.50;99.90;;;;;;2058369;28;20230;-71
2023/10/20 01:16:33;;;;;;;13.73;10.33;;;13.50;99.90;;;;;;2065845;28;20230;-72
2023/10/20 01:17:34;;;;;;;18.37;11.20;;;13.50;99.90;;;;;;2061613;28;20242;-71
2023/10/20 01:18:35;;;;;;;17.95;10.88;;;13.50;99.90;;;;;;2069749;28;20240;-71
2023/10/20 01:19:37;;;;;;;13.27;10.63;;;13.40;99.90;;;;;;2065384;28;20262;-71
2023/10/20 01:20:38;;;;;;;22.10;12.82;;;13.50;99.90;;;;;;2065688;28;20699;-71
2023/10/20 01:21:39;;;;;;;14.00;10.27;;;13.50;99.90;;;;;;2064823;28;20230;-72
2023/10/20 01:22:41;;;;;;;14.37;11.40;;;13.50;99.90;;;;;;2066580;28;20230;-71
2023/10/20 01:23:42;;;;;;;20.77;12.48;;;13.50;99.90;;;;;;2065716;28;20593;-71
2023/10/20 01:24:43;;;;;;;14.77;10.43;;;13.50;99.90;;;;;;2075351;28;20645;-71
2023/10/20 01:25:43;;;;;;;10.60;9.47;;;13.50;99.90;;;;;;2080605;28;20247;-70
2023/10/20 01:26:44;;;;;;;17.50;9.83;;;13.40;99.90;;;;;;2068080;28;20238;-71
2023/10/20 01:27:45;;;;;;;12.10;9.07;;;13.30;99.90;;;;;;2064991;28;20233;-71
2023/10/20 01:28:45;;;;;;;12.23;9.30;;;13.30;99.90;;;;;;2065033;28;20237;-71
2023/10/20 01:29:46;;;;;;;14.27;9.87;;;13.30;99.90;;;;;;2059356;28;20712;-71
2023/10/20 01:30:47;;;;;;;14.33;9.70;;;13.30;99.90;;;;;;2075864;28;20316;-71
2023/10/20 01:31:48;;;;;;;17.83;10.48;;;13.30;99.90;;;;;;2071531;28;20233;-71
2023/10/20 01:32:48;;;;;;;18.00;10.60;;;13.30;99.90;;;;;;2063270;28;20243;-71
2023/10/20 01:33:49;;;;;;;10.53;8.17;;;13.30;99.90;;;;;;2063793;28;20245;-71
2023/10/20 01:34:50;;;;;;;10.50;8.50;;;13.30;99.90;;;;;;2063932;28;20230;-71
2023/10/20 01:35:50;;;;;;;13.87;9.63;;;13.30;99.90;;;;;;2062865;28;20296;-71
2023/10/20 01:36:51;;;;;;;18.20;10.00;;;13.20;99.90;;;;;;2063566;28;20735;-71
2023/10/20 01:37:53;;;;;;;19.67;11.20;;;13.20;99.90;;;;;;2063470;28;20240;-71
2023/10/20 01:38:53;;;;;;;18.43;10.80;;;13.20;99.90;;;;;;2069870;28;20237;-71
2023/10/20 01:39:55;;;;;;;13.53;9.37;;;13.10;99.90;;;;;;2067134;28;20932;-71
2023/10/20 01:40:55;;;;;;;11.88;9.10;;;13.10;99.90;;;;;;2058409;28;20230;-71
2023/10/20 01:41:56;;;;;;;11.83;9.70;;;13.20;99.90;;;;;;2062675;28;20743;-71
2023/10/20 01:42:57;;;;;;;10.30;8.67;;;13.20;99.90;;;;;;2062666;28;20241;-72
2023/10/20 01:43:57;;;;;;;11.43;9.13;;;13.20;99.90;;;;;;2062419;28;20234;-71
2023/10/20 01:44:58;;;;;;;14.00;10.00;;;13.20;99.90;;;;;;2064059;28;20324;-71
2023/10/20 01:46:00;;;;;;;13.03;9.03;;;13.20;99.90;;;;;;2070920;28;20735;-71
2023/10/20 01:47:00;;;;;;;16.52;9.48;;;13.20;99.90;;;;;;2070818;28;20723;-71
2023/10/20 01:48:01;;;;;;;15.07;10.00;;;13.20;99.90;;;;;;2063634;28;20295;-71
2023/10/20 01:49:02;;;;;;;15.10;8.70;;;13.30;99.90;;;;;;2063044;28;20283;-71
2023/10/20 01:50:03;;;;;;;15.97;9.90;;;13.30;99.90;;;;;;2062445;28;20238;-71
2023/10/20 01:51:04;;;;;;;15.57;9.48;;;13.30;99.90;;;;;;2063167;28;20716;-70
2023/10/20 01:52:04;;;;;;;13.07;9.20;;;13.30;99.90;;;;;;2063511;28;20234;-70
2023/10/20 01:53:05;;;;;;;13.60;8.93;;;13.20;99.90;;;;;;2063016;28;20727;-72
2023/10/20 01:54:06;;;;;;;14.33;8.97;;;13.30;99.90;;;;;;2062937;28;20205;-72
2023/10/20 01:55:07;;;;;;;10.47;8.07;;;13.30;99.90;;;;;;2063178;28;20205;-71
2023/10/20 01:56:08;;;;;;;10.38;8.10;;;13.30;99.90;;;;;;2072018;28;20224;-72
2023/10/20 01:57:09;;;;;;;14.03;7.77;;;13.30;99.90;;;;;;2078809;28;20236;-71
2023/10/20 01:58:09;;;;;;;11.57;9.00;;;13.20;99.90;;;;;;2073576;28;20225;-71
2023/10/20 01:59:11;;;;;;;11.27;8.73;;;13.00;99.90;;;;;;2074514;28;20328;-72
2023/10/20 02:00:15;;;;;;;11.95;8.93;;;12.90;99.90;;;;;;2072366;28;20186;-71
2023/10/20 02:01:18;;;;;;;13.93;9.70;;;12.90;99.90;;;;;;2063800;28;20190;-71
2023/10/20 02:02:19;;;;;;;13.55;9.18;;;12.90;99.90;;;;;;2063941;28;20210;-72
2023/10/20 02:03:19;;;;;;;16.20;11.00;;;12.90;99.90;;;;;;2064959;28;20190;-71
2023/10/20 02:04:20;;;;;;;13.70;9.37;;;12.90;99.90;;;;;;2072063;28;20261;-72
2023/10/20 02:05:24;;;;;;;12.03;8.90;;;12.80;99.90;;;;;;2072216;28;20182;-72
2023/10/20 02:06:26;;;;;;;14.27;10.38;;;12.90;99.90;;;;;;2065812;28;20230;-72
2023/10/20 02:07:27;;;;;;;13.13;8.93;;;12.90;99.90;;;;;;2059762;28;20253;-72
2023/10/20 02:08:28;;;;;;;13.98;9.80;;;13.00;99.90;;;;;;2068982;28;20236;-72
2023/10/20 02:09:28;;;;;;;12.60;9.40;;;13.00;99.90;;;;;;2064334;28;20227;-72
2023/10/20 02:10:31;;;;;;;13.87;9.53;;;13.10;99.90;;;;;;2064089;28;20815;-72
2023/10/20 02:11:31;;;;;;;19.40;11.68;;;13.00;99.90;;;;;;2056478;28;20313;-71
2023/10/20 02:12:33;;;;;;;11.17;9.10;;;13.10;99.90;;;;;;2054866;28;20253;-72
2023/10/20 02:13:35;;;;;;;16.20;10.65;;;13.20;99.90;;;;;;2060294;28;20313;-72
2023/10/20 02:14:35;;;;;;;14.48;10.23;;;13.20;99.90;;;;;;2060175;28;20229;-72
2023/10/20 02:15:36;;;;;;;12.53;9.60;;;13.20;99.90;;;;;;2056501;28;20314;-71
2023/10/20 02:16:37;;;;;;;13.13;9.40;;;13.20;99.90;;;;;;2056161;28;20262;-72
2023/10/20 02:17:37;;;;;;;15.67;10.47;;;13.10;99.90;;;;;;2063392;28;20285;-72
2023/10/20 02:18:39;;;;;;;23.63;12.23;;;13.10;99.90;;;;;;2063881;28;20233;-72
2023/10/20 02:19:40;;;;;;;16.38;9.95;;;13.10;99.90;;;;;;2064534;28;20230;-71
2023/10/20 02:20:40;;;;;;;11.27;8.93;;;13.10;99.90;;;;;;2064420;28;20330;-71
2023/10/20 02:21:41;;;;;;;15.90;9.53;;;13.10;99.90;;;;;;2064735;28;20238;-72
2023/10/20 02:22:43;;;;;;;15.00;9.37;;;13.20;99.90;;;;;;2063062;28;20234;-72
2023/10/20 02:23:43;;;;;;;12.32;9.63;;;13.20;99.90;;;;;;2064259;28;20244;-72
2023/10/20 02:24:45;;;;;;;13.13;9.23;;;13.10;99.90;;;;;;2063735;28;20234;-71
2023/10/20 02:25:45;;;;;;;14.88;9.88;;;13.10;99.90;;;;;;2055285;28;20294;-72
2023/10/20 02:26:46;;;;;;;11.17;8.40;;;13.00;99.90;;;;;;2055684;28;20238;-71
2023/10/20 02:27:47;;;;;;;13.18;9.60;;;13.10;99.90;;;;;;2064972;28;20225;-72
2023/10/20 02:28:48;;;;;;;15.27;9.73;;;13.10;99.90;;;;;;2062655;28;20915;-72
2023/10/20 02:29:48;;;;;;;14.27;9.07;;;13.10;99.90;;;;;;2063895;28;20241;-72
2023/10/20 02:30:49;;;;;;;14.53;8.97;;;13.00;99.90;;;;;;2072315;28;20237;-72
2023/10/20 02:31:50;;;;;;;11.03;9.37;;;13.00;99.90;;;;;;2073126;28;20273;-71
2023/10/20 02:32:50;;;;;;;14.23;9.30;;;13.00;99.90;;;;;;2063525;28;20818;-71
2023/10/20 02:33:51;;;;;;;14.23;9.80;;;13.00;99.90;;;;;;2064277;28;20238;-72
2023/10/20 02:34:52;;;;;;;10.17;8.50;;;13.10;99.90;;;;;;2063659;28;20312;-72
2023/10/20 02:35:54;;;;;;;11.40;8.87;;;13.00;99.90;;;;;;2070320;28;20225;-71
2023/10/20 02:36:54;;;;;;;13.90;9.07;;;13.10;99.90;;;;;;2072419;28;20237;-71
2023/10/20 02:37:55;;;;;;;15.57;9.63;;;13.10;99.90;;;;;;2064399;28;20230;-71
2023/10/20 02:38:56;;;;;;;13.00;8.53;;;13.10;99.90;;;;;;2063119;28;20305;-71
2023/10/20 02:39:56;;;;;;;22.63;9.57;;;13.20;99.90;;;;;;2063821;28;20230;-71
2023/10/20 02:40:57;;;;;;;18.63;9.17;;;13.20;99.90;;;;;;2064675;28;20226;-71
2023/10/20 02:41:57;;;;;;;25.60;9.83;;;13.10;99.90;;;;;;2072497;28;20237;-71
2023/10/20 02:42:58;;;;;;;30.73;11.37;;;13.10;99.90;;;;;;2072141;28;20233;-72
2023/10/20 02:43:59;;;;;;;10.10;8.13;;;13.20;99.90;;;;;;2063911;28;20242;-71
2023/10/20 02:45:00;;;;;;;10.70;7.10;;;13.20;99.90;;;;;;2062914;28;20240;-71
2023/10/20 02:46:02;;;;;;;13.47;8.20;;;13.10;99.90;;;;;;2063683;28;20240;-71
2023/10/20 02:47:03;;;;;;;11.05;7.85;;;13.10;99.90;;;;;;2065365;28;20230;-71
2023/10/20 02:48:04;;;;;;;9.97;7.00;;;13.10;99.90;;;;;;2064274;28;20237;-71
2023/10/20 02:49:06;;;;;;;7.90;6.60;;;13.10;99.90;;;;;;2071857;28;20236;-72
2023/10/20 02:50:07;;;;;;;9.10;7.00;;;13.00;99.90;;;;;;2070206;28;20217;-72
2023/10/20 02:51:12;;;;;;;9.35;8.35;;;13.00;99.90;;;;;;2064877;28;20248;-72
2023/10/20 02:52:13;;;;;;;7.15;6.30;;;12.80;99.90;;;;;;2065124;28;20271;-72
2023/10/20 02:53:16;;;;;;;8.73;7.37;;;12.70;99.90;;;;;;2064742;28;20206;-71
2023/10/20 02:54:17;;;;;;;9.07;7.03;;;12.60;99.90;;;;;;2059852;28;20575;-71
2023/10/20 02:55:18;;;;;;;8.20;6.63;;;12.60;99.90;;;;;;2062959;28;20191;-72
2023/10/20 02:56:20;;;;;;;13.60;8.63;;;12.50;99.90;;;;;;2064381;28;20536;-72
2023/10/20 02:57:21;;;;;;;10.70;7.10;;;12.50;99.90;;;;;;2064042;28;20191;-71
2023/10/20 02:58:22;;;;;;;10.63;8.02;;;12.60;99.90;;;;;;2064269;28;20221;-71
2023/10/20 02:59:23;;;;;;;8.50;7.07;;;12.60;99.90;;;;;;2064558;28;20186;-72
2023/10/20 03:00:23;;;;;;;7.63;6.77;;;12.70;99.90;;;;;;2066317;28;20229;-72
2023/10/20 03:01:25;;;;;;;10.20;8.00;;;12.70;99.90;;;;;;2068697;28;20194;-72
2023/10/20 03:02:26;;;;;;;12.45;8.00;;;12.80;99.90;;;;;;2065624;28;20241;-72
2023/10/20 03:03:27;;;;;;;8.27;7.32;;;12.70;99.90;;;;;;2066470;28;20340;-71
2023/10/20 03:04:27;;;;;;;8.33;7.10;;;12.70;99.90;;;;;;2073880;28;20738;-72
2023/10/20 03:05:29;;;;;;;9.40;7.40;;;12.80;99.90;;;;;;2074464;28;20287;-71
2023/10/20 03:06:30;;;;;;;8.35;6.88;;;12.80;99.90;;;;;;2074123;28;21306;-72
2023/10/20 03:07:31;;;;;;;7.83;7.10;;;12.80;99.90;;;;;;2073790;28;20273;-71
2023/10/20 03:08:31;;;;;;;8.50;6.93;;;12.80;99.90;;;;;;2069814;28;20587;-72
2023/10/20 03:09:32;;;;;;;8.93;7.33;;;12.80;99.90;;;;;;2069163;28;20233;-71
2023/10/20 03:10:33;;;;;;;9.03;7.07;;;12.80;99.90;;;;;;2065825;28;20293;-71
2023/10/20 03:11:34;;;;;;;11.17;7.50;;;12.90;99.90;;;;;;2066180;28;20474;-72
2023/10/20 03:12:35;;;;;;;9.60;7.45;;;12.90;99.90;;;;;;2064322;28;20316;-72
2023/10/20 03:13:36;;;;;;;10.30;7.77;;;12.90;99.90;;;;;;2065144;28;20296;-71
2023/10/20 03:14:36;;;;;;;9.70;6.87;;;12.90;99.90;;;;;;2057379;28;20227;-72
2023/10/20 03:15:37;;;;;;;10.37;7.70;;;12.90;99.90;;;;;;2069841;28;20245;-71
2023/10/20 03:16:42;;;;;;;8.60;7.70;;;12.80;99.90;;;;;;2066577;28;20547;-71
2023/10/20 03:17:43;;;;;;;8.30;7.05;;;12.90;99.90;;;;;;2065118;28;20230;-72
2023/10/20 03:18:44;;;;;;;8.73;7.50;;;12.90;99.90;;;;;;2066201;28;20329;-71
2023/10/20 03:19:48;;;;;;;11.40;8.10;;;12.90;99.90;;;;;;2060134;28;20230;-71
2023/10/20 03:20:49;;;;;;;8.52;7.55;;;13.00;99.90;;;;;;2060212;28;20814;-71
2023/10/20 03:21:49;;;;;;;9.45;8.10;;;12.90;99.90;;;;;;2067092;28;20238;-71
2023/10/20 03:22:51;;;;;;;8.17;7.37;;;12.80;99.90;;;;;;2073961;28;20233;-72
2023/10/20 03:23:52;;;;;;;8.27;7.45;;;12.70;99.90;;;;;;2073479;28;20247;-72
2023/10/20 03:24:54;;;;;;;11.00;8.80;;;12.60;99.90;;;;;;2065075;28;20255;-71
2023/10/20 03:25:55;;;;;;;8.43;7.53;;;12.50;99.90;;;;;;2057078;28;20239;-71
2023/10/20 03:26:55;;;;;;;8.90;8.00;;;12.50;99.90;;;;;;2057248;28;20251;-71
2023/10/20 03:27:56;;;;;;;9.90;8.07;;;12.40;99.90;;;;;;2064087;28;20302;-71
2023/10/20 03:28:57;;;;;;;11.33;8.47;;;12.40;99.90;;;;;;2070709;28;20240;-71
2023/10/20 03:29:57;;;;;;;10.93;8.10;;;12.40;99.90;;;;;;2081449;28;20228;-71
2023/10/20 03:31:02;;;;;;;9.60;8.37;;;12.40;99.90;;;;;;2081710;28;20263;-71
2023/10/20 03:32:03;;;;;;;9.35;7.95;;;12.40;99.90;;;;;;2073038;28;20280;-71
2023/10/20 03:33:08;;;;;;;10.37;8.00;;;12.50;99.90;;;;;;2073377;28;20320;-69
2023/10/20 03:34:09;;;;;;;9.43;8.43;;;12.50;99.90;;;;;;2071888;28;20230;-71
2023/10/20 03:35:09;;;;;;;8.90;8.00;;;12.60;99.90;;;;;;2072678;28;20273;-71
2023/10/20 03:36:12;;;;;;;12.17;8.77;;;12.70;99.90;;;;;;2074074;28;20197;-71
2023/10/20 03:37:13;;;;;;;10.98;9.27;;;12.60;99.90;;;;;;2064018;28;20205;-71
2023/10/20 03:38:14;;;;;;;10.75;9.00;;;12.60;99.90;;;;;;2066844;28;20566;-71
2023/10/20 03:39:20;;;;;;;12.13;9.17;;;12.70;99.90;;;;;;2074575;28;20204;-71
2023/10/20 03:40:30;;;;;;;11.27;9.13;;;12.80;99.90;;;;;;2073423;28;20193;-71
2023/10/20 03:41:31;;;;;;;12.07;9.57;;;12.80;99.90;;;;;;2073298;28;20643;-71
2023/10/20 03:42:31;;;;;;;12.33;9.17;;;12.80;99.90;;;;;;2072656;28;20240;-71
2023/10/20 03:43:34;;;;;;;11.98;9.27;;;12.80;99.90;;;;;;2073463;28;20245;-71
2023/10/20 03:44:34;;;;;;;11.35;9.60;;;12.80;99.90;;;;;;2074304;28;20712;-71
2023/10/20 03:45:46;;;;;;;11.90;9.37;;;12.80;99.90;;;;;;2072190;28;20236;-71
2023/10/20 03:46:49;;;;;;;12.98;9.55;;;12.70;99.90;;;;;;2060604;28;20230;-71
2023/10/20 03:47:50;;;;;;;11.27;9.25;;;12.70;99.90;;;;;;2057215;28;20234;-71
2023/10/20 03:48:51;;;;;;;10.52;9.02;;;12.70;99.90;;;;;;2064434;28;20336;-71
2023/10/20 03:49:52;;;;;;;11.87;8.83;;;12.70;99.90;;;;;;2064858;28;20230;-71
2023/10/20 03:50:53;;;;;;;10.70;9.27;;;12.70;99.90;;;;;;2070521;28;20233;-71
2023/10/20 03:51:54;;;;;;;11.40;9.43;;;12.70;99.90;;;;;;2066485;28;20265;-71
2023/10/20 03:52:55;;;;;;;11.23;9.10;;;12.70;99.90;;;;;;2066140;28;20230;-71
2023/10/20 03:53:55;;;;;;;12.80;10.27;;;12.80;99.90;;;;;;2073643;28;20233;-71
2023/10/20 03:54:57;;;;;;;11.90;9.77;;;12.80;99.90;;;;;;2069415;28;20605;-71
2023/10/20 03:56:02;;;;;;;11.80;9.80;;;12.80;99.90;;;;;;2065225;28;20310;-71
2023/10/20 03:57:03;;;;;;;11.73;9.38;;;12.80;99.90;;;;;;2065731;28;20305;-71
2023/10/20 03:58:04;;;;;;;11.10;9.60;;;12.80;99.90;;;;;;2073351;28;20249;-71
2023/10/20 03:59:05;;;;;;;13.33;11.67;;;12.80;99.90;;;;;;2072752;28;20243;-71
2023/10/20 04:00:21;;;;;;;11.27;9.68;;;12.90;99.90;;;;;;2072545;28;20295;-71
2023/10/20 04:01:22;;;;;;;13.68;12.27;;;12.80;99.90;;;;;;2071361;28;20280;-71
2023/10/20 04:02:22;;;;;;;13.57;12.27;;;12.80;99.90;;;;;;2057731;28;20222;-71
2023/10/20 04:03:25;;;;;;;14.20;12.30;;;12.80;99.90;;;;;;2057847;28;20194;-71
2023/10/20 04:04:25;;;;;;;15.35;13.75;;;12.80;99.90;;;;;;2058220;28;20333;-71
2023/10/20 04:05:26;;;;;;;17.80;15.77;;;12.80;99.90;;;;;;2067318;28;20789;-71
2023/10/20 04:06:26;;;;;;;17.30;15.50;;;12.70;99.90;;;;;;2072671;28;20283;-71
2023/10/20 04:07:28;;;;;;;19.57;17.47;;;12.80;99.90;;;;;;2073163;28;20256;-70
2023/10/20 04:08:28;;;;;;;17.23;15.27;;;12.70;99.90;;;;;;2067500;28;20350;-71
2023/10/20 04:09:29;;;;;;;17.83;15.60;;;12.80;99.90;;;;;;2067595;28;20654;-71
2023/10/20 04:10:29;;;;;;;20.10;16.37;;;12.70;99.90;;;;;;2067312;28;20226;-71
2023/10/20 04:11:34;;;;;;;18.27;15.80;;;12.70;99.90;;;;;;2065793;28;20249;-70
2023/10/20 04:12:38;;;;;;;16.42;14.70;;;12.70;99.90;;;;;;2072581;28;20233;-71
2023/10/20 04:13:39;;;;;;;14.25;12.85;;;12.70;99.90;;;;;;2064221;28;20238;-70
2023/10/20 04:14:39;;;;;;;16.75;14.27;;;12.70;99.90;;;;;;2064529;28;20238;-71
2023/10/20 04:15:42;;;;;;;11.87;10.63;;;12.70;99.90;;;;;;2065322;28;20275;-71
2023/10/20 04:16:43;;;;;;;14.55;12.05;;;12.70;99.90;;;;;;2064452;28;20261;-71
2023/10/20 04:17:45;;;;;;;13.15;11.85;;;12.80;99.90;;;;;;2065379;28;20627;-70
2023/10/20 04:18:47;;;;;;;14.15;11.20;;;12.80;99.90;;;;;;2070323;28;20233;-70
2023/10/20 04:19:49;;;;;;;10.55;9.45;;;12.70;99.90;;;;;;2066926;28;20240;-71
2023/10/20 04:20:50;;;;;;;12.05;9.20;;;12.60;99.90;;;;;;2073337;28;20236;-71
2023/10/20 04:21:50;;;;;;;11.23;9.67;;;12.60;99.90;;;;;;2072648;28;20326;-71
2023/10/20 04:22:51;;;;;;;10.67;9.57;;;12.60;99.90;;;;;;2066953;28;20226;-71
2023/10/20 04:23:52;;;;;;;11.97;9.77;;;12.50;99.90;;;;;;2064448;28;20218;-71
2023/10/20 04:24:53;;;;;;;11.37;9.63;;;12.50;99.90;;;;;;2071164;28;20235;-71
2023/10/20 04:25:54;;;;;;;13.88;10.55;;;12.50;99.90;;;;;;2058937;28;20234;-71
2023/10/20 04:26:55;;;;;;;9.30;8.20;;;12.50;99.90;;;;;;2057396;28;20226;-70
2023/10/20 04:28:05;;;;;;;8.47;7.40;;;12.50;99.90;;;;;;2064352;28;20233;-71
2023/10/20 04:43:42;;;;;;;9.43;8.18;;;12.50;99.90;;;;;;2063874;28;20312;-71
2023/10/20 04:58:21;;;;;;;9.38;8.35;;;12.30;99.90;;;;;;2073036;28;20197;-72
2023/10/20 04:59:23;;;;;;;9.93;8.88;;;12.30;99.90;;;;;;2072822;28;20186;-71
2023/10/20 05:02:39;;;;;;;10.17;8.03;;;12.40;99.90;;;;;;2074257;28;20240;-71
2023/10/20 05:03:45;;;;;;;10.40;7.90;;;12.40;99.90;;;;;;2073174;28;20287;-70
2023/10/20 05:04:49;;;;;;;8.50;7.60;;;12.40;99.90;;;;;;2073115;28;20229;-70
2023/10/20 05:05:53;;;;;;;8.48;7.57;;;12.40;99.90;;;;;;2073592;28;20315;-71
2023/10/20 05:06:58;;;;;;;9.30;8.02;;;12.40;99.90;;;;;;2073196;28;20283;-71
2023/10/20 05:08:16;;;;;;;9.60;8.23;;;12.40;99.90;;;;;;2072973;28;20260;-71
2023/10/20 05:09:17;;;;;;;9.10;7.82;;;12.30;99.90;;;;;;2064586;28;20229;-71
2023/10/20 05:10:21;;;;;;;8.93;8.03;;;12.40;99.90;;;;;;2073081;28;20217;-71
2023/10/20 05:11:22;;;;;;;9.27;7.93;;;12.40;99.90;;;;;;2070786;28;20198;-71
2023/10/20 05:12:23;;;;;;;7.37;6.67;;;12.40;99.90;;;;;;2069889;28;20726;-70
2023/10/20 05:13:23;;;;;;;8.13;7.17;;;12.30;99.90;;;;;;2064718;28;20198;-70
2023/10/20 05:14:24;;;;;;;7.40;6.57;;;12.30;99.90;;;;;;2072635;28;20213;-71
2023/10/20 05:15:25;;;;;;;7.67;6.87;;;12.30;99.90;;;;;;2065082;28;20222;-71
2023/10/20 05:16:28;;;;;;;7.33;6.63;;;12.30;99.90;;;;;;2064517;28;20264;-71
2023/10/20 05:17:32;;;;;;;7.13;6.22;;;12.30;99.90;;;;;;2065599;28;20234;-71
2023/10/20 05:18:34;;;;;;;7.75;6.95;;;12.40;99.90;;;;;;2064367;28;20234;-71
2023/10/20 05:19:36;;;;;;;8.15;7.35;;;12.40;99.90;;;;;;2064451;28;20305;-70
2023/10/20 05:20:37;;;;;;;7.60;6.90;;;12.50;99.90;;;;;;2065459;28;20738;-71
2023/10/20 05:21:40;;;;;;;8.10;6.10;;;12.50;99.90;;;;;;2064170;28;20257;-71
2023/10/20 05:22:42;;;;;;;8.65;7.32;;;12.40;99.90;;;;;;2063997;28;20483;-71
2023/10/20 05:23:43;;;;;;;7.60;6.82;;;12.40;99.90;;;;;;2063993;28;20238;-71
2023/10/20 05:24:44;;;;;;;9.68;7.78;;;12.40;99.90;;;;;;2064128;28;20238;-70
2023/10/20 05:25:46;;;;;;;9.17;7.30;;;12.40;99.90;;;;;;2064591;28;20250;-71
2023/10/20 05:26:47;;;;;;;8.88;7.18;;;12.40;99.90;;;;;;2065555;28;20237;-71
2023/10/20 05:27:48;;;;;;;8.52;7.65;;;12.40;99.90;;;;;;2064876;28;20743;-71
2023/10/20 05:28:49;;;;;;;8.67;7.37;;;12.30;99.90;;;;;;2064519;28;20249;-71
2023/10/20 05:29:50;;;;;;;9.23;6.80;;;12.40;99.90;;;;;;2062153;28;20260;-70
2023/10/20 05:30:51;;;;;;;7.63;6.88;;;12.40;99.90;;;;;;2065260;28;20261;-70
2023/10/20 05:31:52;;;;;;;8.40;7.50;;;12.40;99.90;;;;;;2064017;28;20256;-70
2023/10/20 05:32:53;;;;;;;8.40;7.60;;;12.40;99.90;;;;;;2064335;28;20917;-70
2023/10/20 05:33:54;;;;;;;7.53;6.73;;;12.40;99.90;;;;;;2064167;28;20230;-70
2023/10/20 05:34:54;;;;;;;9.40;7.80;;;12.40;99.90;;;;;;2063415;28;20234;-70
2023/10/20 05:36:01;;;;;;;9.00;7.30;;;12.50;99.90;;;;;;2063557;28;20233;-70
2023/10/20 05:37:02;;;;;;;9.30;7.55;;;12.50;99.90;;;;;;2064020;28;20672;-70
2023/10/20 05:38:03;;;;;;;9.60;7.00;;;12.50;99.90;;;;;;2064466;28;20237;-70
2023/10/20 05:39:04;;;;;;;8.63;7.37;;;12.50;99.90;;;;;;2063618;28;20226;-70
2023/10/20 05:40:05;;;;;;;9.65;8.18;;;12.40;99.90;;;;;;2063174;28;20661;-70
2023/10/20 05:41:06;;;;;;;8.63;7.65;;;12.40;99.90;;;;;;2062387;28;20230;-71
2023/10/20 05:42:07;;;;;;;9.05;7.47;;;12.40;99.90;;;;;;2071372;28;20190;-70
2023/10/20 05:43:08;;;;;;;10.13;7.83;;;12.40;99.90;;;;;;2079762;28;20251;-70
2023/10/20 05:44:11;;;;;;;8.40;7.50;;;12.40;99.90;;;;;;2079479;28;20967;-71
2023/10/20 05:45:20;;;;;;;9.80;7.25;;;12.50;99.90;;;;;;2073692;28;20256;-71